createdAt,value
2019-01-19T16:42:49.327Z,84.20
2019-01-19T16:45:34.589Z,83.70
2019-01-19T16:48:45.140Z,82.80
2019-01-19T16:52:07.663Z,83.10
2019-01-19T16:55:11.351Z,84.00
2019-01-19T16:58:32.791Z,83.80
2019-01-19T17:01:32.019Z,84.20
2019-01-19T17:04:37.636Z,85.00
2019-01-19T17:07:53.431Z,84.60
2019-01-19T17:10:50.549Z,84.70
2019-01-19T17:13:48.925Z,85.60
2019-01-19T17:16:52.922Z,85.00
2019-01-19T17:19:47.495Z,85.40
2019-01-19T17:22:55.501Z,85.90
2019-01-19T17:26:20.913Z,85.50
2019-01-19T17:29:09.810Z,85.50
2019-01-19T17:31:46.166Z,84.60
2019-01-19T17:34:56.270Z,85.10
2019-01-19T17:38:00.099Z,85.90
2019-01-19T17:41:11.873Z,86.30
2019-01-19T17:44:25.796Z,85.90
2019-01-19T17:47:27.340Z,85.90
2019-01-19T17:50:12.003Z,85.70
2019-01-19T17:53:31.638Z,84.90
2019-01-19T17:56:57.734Z,84.90
2019-01-19T18:00:02.815Z,85.20
2019-01-19T18:03:10.538Z,85.20
2019-01-19T18:05:57.334Z,84.90
2019-01-19T18:08:56.221Z,84.70
2019-01-19T18:12:15.460Z,84.60
2019-01-19T18:15:28.150Z,84.90
2019-01-19T18:18:29.483Z,83.70
2019-01-19T18:21:23.399Z,84.30
2019-01-19T18:24:35.699Z,84.90
2019-01-19T18:27:49.554Z,85.90
2019-01-19T18:30:48.151Z,86.60
2019-01-19T18:33:49.871Z,86.70
2019-01-19T18:36:56.829Z,86.60
2019-01-19T18:40:03.075Z,86.20
2019-01-19T18:43:05.969Z,86.10
2019-01-19T18:46:06.441Z,85.70
2019-01-19T18:49:26.842Z,85.00
2019-01-19T18:52:29.237Z,84.80
2019-01-19T18:55:40.551Z,84.20
2019-01-19T18:58:33.742Z,84.70
2019-01-19T19:01:29.711Z,84.80
2019-01-19T19:05:10.829Z,85.10
2019-01-19T19:08:25.097Z,85.80
2019-01-19T19:11:35.125Z,86.60
2019-01-19T19:14:30.478Z,86.50
2019-01-19T19:17:36.245Z,86.60
2019-01-19T19:20:52.205Z,86.80
2019-01-19T19:24:07.068Z,86.20
2019-01-19T19:27:31.421Z,86.60
2019-01-19T19:30:26.669Z,86.70
2019-01-19T19:33:29.740Z,87.50
2019-01-19T19:36:30.819Z,87.50
2019-01-19T19:39:28.063Z,87.50
2019-01-19T19:42:34.201Z,88.30
2019-01-19T19:45:42.159Z,88.90
2019-01-19T19:48:38.091Z,88.70
2019-01-19T19:51:43.433Z,88.20
2019-01-19T19:54:13.713Z,87.30
2019-01-19T19:56:41.653Z,86.80
2019-01-19T19:59:11.912Z,86.50
2019-01-19T20:01:42.193Z,86.70
2019-01-19T20:04:12.672Z,87.20
2019-01-19T20:06:43.365Z,87.70
2019-01-19T20:09:13.553Z,87.40
2019-01-19T20:11:43.780Z,87.20
2019-01-19T20:14:14.323Z,87.60
2019-01-19T20:16:44.821Z,88.00
2019-01-19T20:19:14.787Z,87.90
2019-01-19T20:21:45.478Z,88.10
2019-01-19T20:24:15.318Z,88.50
2019-01-19T20:26:45.909Z,88.60
2019-01-19T20:29:16.565Z,89.00
2019-01-19T20:31:47.183Z,88.80
2019-01-19T20:34:17.435Z,88.60
2019-01-19T20:36:48.071Z,88.70
2019-01-19T20:39:18.666Z,88.40
2019-01-19T20:41:49.255Z,88.50
2019-01-19T20:44:19.427Z,88.80
2019-01-19T20:46:50.085Z,89.30
2019-01-19T20:49:19.918Z,89.40
2019-01-19T20:51:49.729Z,89.70
2019-01-19T20:54:20.276Z,89.80
2019-01-19T20:56:50.774Z,89.10
2019-01-19T20:59:21.020Z,89.10
2019-01-19T21:01:51.850Z,89.50
2019-01-19T21:04:22.371Z,89.80
2019-01-19T21:06:53.783Z,89.40
2019-01-19T21:09:24.477Z,89.00
2019-01-19T21:11:55.048Z,89.00
2019-01-19T21:14:25.747Z,88.90
2019-01-19T21:16:56.210Z,89.30
2019-01-19T21:19:26.671Z,89.20
2019-01-19T21:21:56.869Z,89.60
2019-01-19T21:24:27.479Z,89.60
2019-01-19T21:26:58.072Z,89.80
2019-01-19T21:29:28.438Z,89.60
2019-01-19T21:31:59.039Z,89.00
2019-01-19T21:34:29.393Z,88.60
2019-01-19T21:37:00.039Z,88.80
2019-01-19T21:39:30.700Z,89.00
2019-01-19T21:42:19.603Z,88.70
2019-01-19T21:44:50.126Z,88.50
2019-01-19T21:47:20.345Z,89.00
2019-01-19T21:49:50.975Z,89.20
2019-01-19T21:52:21.201Z,89.60
2019-01-19T21:54:51.739Z,89.30
2019-01-19T21:57:21.980Z,89.50
2019-01-19T21:59:52.607Z,89.40
2019-01-19T22:02:22.799Z,89.30
2019-01-19T22:04:53.060Z,89.00
2019-01-19T22:07:23.255Z,89.00
2019-01-19T22:09:53.772Z,89.20
2019-01-19T22:12:24.345Z,89.40
2019-01-19T22:14:55.061Z,89.60
2019-01-19T22:17:25.663Z,89.60
2019-01-19T22:19:56.405Z,90.00
2019-01-19T22:22:26.701Z,89.90
2019-01-19T22:24:57.390Z,90.00
2019-01-19T22:27:28.391Z,89.80
2019-01-19T22:29:58.583Z,89.40
2019-01-19T22:32:29.193Z,88.70
2019-01-19T22:34:59.432Z,89.00
2019-01-19T22:37:29.787Z,88.90
2019-01-19T22:40:00.426Z,89.30
2019-01-19T22:42:30.680Z,89.00
2019-01-19T22:45:01.380Z,89.10
2019-01-19T22:47:31.978Z,90.00
2019-01-19T22:50:02.599Z,90.00
2019-01-19T22:52:33.273Z,90.00
2019-01-19T22:55:03.859Z,90.60
2019-01-19T22:57:34.433Z,89.80
2019-01-19T23:00:07.930Z,90.70
2019-01-19T23:02:38.139Z,90.60
2019-01-19T23:05:08.819Z,90.40
2019-01-19T23:07:39.491Z,90.00
2019-01-19T23:10:10.016Z,89.10
2019-01-19T23:12:40.569Z,89.20
2019-01-19T23:15:12.801Z,89.20
2019-01-19T23:17:43.090Z,89.10
2019-01-19T23:20:13.911Z,90.30
2019-01-19T23:22:44.565Z,90.50
2019-01-19T23:25:15.153Z,90.60
2019-01-19T23:28:03.771Z,90.30
2019-01-19T23:30:33.751Z,90.30
2019-01-19T23:33:03.670Z,90.00
2019-01-19T23:35:34.279Z,89.60
2019-01-19T23:38:05.023Z,89.20
2019-01-19T23:40:35.238Z,89.10
2019-01-19T23:43:05.857Z,89.10
2019-01-19T23:45:36.589Z,89.00
2019-01-19T23:48:07.307Z,87.60
2019-01-19T23:50:37.813Z,88.10
2019-01-19T23:53:08.287Z,87.50
2019-01-19T23:55:38.836Z,87.80
2019-01-19T23:58:08.885Z,87.90
